Time;durP1;ratioP1;P1;durP2;ratioP2;P2;SDS_P1;SDS_P2;PMS_P1;PMS_P2;Temp;Humidity;BMP_temperature;BMP_pressure;BME280_temperature;BME280_humidity;BME280_pressure;Samples;Min_cycle;Max_cycle;Signal;HPM_P1;HPM_P2
2022/05/30 00:00:02;;;;;;;17.90;11.75;;;8.30;99.90;;;;;;5022034;28;20112;-61
2022/05/30 00:02:27;;;;;;;15.35;11.20;;;8.30;99.90;;;;;;5020422;28;20034;-61
2022/05/30 00:04:53;;;;;;;15.90;11.85;;;8.40;99.90;;;;;;5021880;28;20035;-60
2022/05/30 00:07:18;;;;;;;17.42;11.13;;;8.40;99.90;;;;;;5017598;28;20040;-61
2022/05/30 00:09:47;;;;;;;15.40;10.27;;;8.40;99.90;;;;;;5020271;28;20400;-61
2022/05/30 00:12:12;;;;;;;16.08;11.82;;;8.40;99.90;;;;;;5019929;28;20037;-59
2022/05/30 00:14:38;;;;;;;15.55;11.18;;;8.40;99.90;;;;;;5017311;28;20467;-60
2022/05/30 00:17:03;;;;;;;18.67;12.18;;;8.40;99.90;;;;;;5028265;28;20487;-57
2022/05/30 00:19:29;;;;;;;16.67;12.23;;;8.40;99.90;;;;;;5031225;28;20041;-61
2022/05/30 00:21:56;;;;;;;17.45;11.85;;;8.50;99.90;;;;;;5029529;28;20036;-61
2022/05/30 00:24:22;;;;;;;21.63;12.82;;;8.50;99.90;;;;;;5024813;28;20471;-61
2022/05/30 00:26:48;;;;;;;23.45;12.32;;;8.50;99.90;;;;;;5029847;28;20025;-61
2022/05/30 00:29:13;;;;;;;60.10;13.40;;;8.40;99.90;;;;;;5030602;28;20091;-61
2022/05/30 00:31:39;;;;;;;16.10;12.32;;;8.40;99.90;;;;;;5027589;28;20033;-61
2022/05/30 00:34:05;;;;;;;17.98;11.52;;;8.40;99.90;;;;;;5029852;28;20025;-60
2022/05/30 00:36:31;;;;;;;17.15;11.52;;;8.40;99.90;;;;;;5029472;28;20044;-61
2022/05/30 00:38:56;;;;;;;17.27;11.80;;;8.40;99.90;;;;;;5031095;28;20387;-61
2022/05/30 00:41:22;;;;;;;16.52;11.73;;;8.40;99.90;;;;;;5026289;28;20056;-60
2022/05/30 00:43:48;;;;;;;16.25;11.77;;;8.40;99.90;;;;;;5028812;28;20562;-61
2022/05/30 00:46:16;;;;;;;16.30;11.50;;;8.40;99.90;;;;;;5029571;28;20128;-61
2022/05/30 00:48:47;;;;;;;17.13;11.95;;;8.50;99.90;;;;;;5030981;28;20029;-61
2022/05/30 00:51:19;;;;;;;16.48;11.82;;;8.50;99.90;;;;;;5029866;28;20120;-59
2022/05/30 00:53:49;;;;;;;16.45;11.68;;;8.50;99.90;;;;;;5030247;28;20505;-60
2022/05/30 00:56:15;;;;;;;17.20;11.82;;;8.40;99.90;;;;;;5028863;28;20088;-59
2022/05/30 00:58:49;;;;;;;16.35;11.57;;;8.40;99.90;;;;;;5021182;28;20018;-61
2022/05/30 01:01:17;;;;;;;19.85;10.98;;;8.40;99.90;;;;;;5029272;28;20057;-61
2022/05/30 01:06:36;;;;;;;18.48;11.15;;;8.40;99.90;;;;;;5029682;28;20036;-61
2022/05/30 01:09:07;;;;;;;16.15;10.55;;;8.50;99.90;;;;;;5030628;28;20018;-58
2022/05/30 01:12:10;;;;;;;16.50;11.18;;;8.50;99.90;;;;;;5029450;28;20033;-60
2022/05/30 01:14:41;;;;;;;17.67;12.18;;;8.50;99.90;;;;;;4963258;28;20133;-60
2022/05/30 01:17:10;;;;;;;14.10;9.85;;;8.40;99.90;;;;;;5020278;28;20376;-60
2022/05/30 01:20:05;;;;;;;15.95;10.43;;;8.40;99.90;;;;;;5029537;28;20079;-61
2022/05/30 01:23:01;;;;;;;13.32;10.00;;;8.40;99.90;;;;;;5030210;28;20033;-61
2022/05/30 01:25:53;;;;;;;17.27;10.70;;;8.40;99.90;;;;;;5027288;28;20030;-61
2022/05/30 01:28:50;;;;;;;14.20;9.77;;;8.50;99.90;;;;;;5029261;28;20041;-61
2022/05/30 01:31:16;;;;;;;13.13;8.95;;;8.40;99.90;;;;;;5026868;28;20040;-61
2022/05/30 01:33:43;;;;;;;12.00;7.80;;;8.40;99.90;;;;;;5027195;28;20026;-60
2022/05/30 01:36:08;;;;;;;18.23;8.77;;;8.40;99.90;;;;;;5023778;28;20033;-60
2022/05/30 01:38:34;;;;;;;14.30;8.43;;;8.40;99.90;;;;;;5028965;28;20375;-61
2022/05/30 01:41:00;;;;;;;13.65;7.75;;;8.40;99.90;;;;;;5029146;28;20044;-60
2022/05/30 01:43:26;;;;;;;12.65;8.32;;;8.40;99.90;;;;;;5029357;28;20409;-59
2022/05/30 01:45:52;;;;;;;12.07;6.70;;;8.40;99.90;;;;;;5029477;28;20041;-60
2022/05/30 01:48:18;;;;;;;14.50;6.45;;;8.40;99.90;;;;;;5028794;28;20395;-61
2022/05/30 01:50:45;;;;;;;11.57;6.30;;;8.40;99.90;;;;;;5029967;28;20034;-60
2022/05/30 01:53:11;;;;;;;12.25;7.03;;;8.30;99.90;;;;;;5027806;28;20056;-60
2022/05/30 01:55:37;;;;;;;11.63;6.35;;;8.40;99.90;;;;;;5015041;28;20031;-60
2022/05/30 01:58:03;;;;;;;19.70;6.85;;;8.40;99.90;;;;;;5014258;28;20077;-59
2022/05/30 02:00:29;;;;;;;11.23;6.57;;;8.40;99.90;;;;;;5022144;28;20448;-60
2022/05/30 02:02:54;;;;;;;10.68;6.10;;;8.40;99.90;;;;;;5016072;28;20026;-61
2022/05/30 02:05:20;;;;;;;12.70;6.43;;;8.50;99.90;;;;;;5019866;28;20530;-60
2022/05/30 02:07:46;;;;;;;8.68;6.03;;;8.50;99.90;;;;;;5022892;28;20025;-61
2022/05/30 02:10:12;;;;;;;11.18;5.53;;;8.40;99.90;;;;;;5029110;28;20065;-60
2022/05/30 02:12:37;;;;;;;8.70;6.13;;;8.50;99.90;;;;;;5031823;28;20380;-61
2022/05/30 02:15:03;;;;;;;7.93;5.10;;;8.50;99.90;;;;;;5032213;28;20017;-58
2022/05/30 02:17:32;;;;;;;12.38;5.53;;;8.50;99.90;;;;;;5032930;28;20037;-60
2022/05/30 02:19:58;;;;;;;11.25;6.22;;;8.50;99.90;;;;;;5024805;28;20029;-61
2022/05/30 02:22:28;;;;;;;11.50;6.45;;;8.50;99.90;;;;;;5023461;28;20018;-60
2022/05/30 02:24:54;;;;;;;13.52;6.80;;;8.50;99.90;;;;;;5034537;28;20026;-61
2022/05/30 02:27:19;;;;;;;11.70;6.82;;;8.50;99.90;;;;;;5025844;28;20076;-61
2022/05/30 02:29:45;;;;;;;13.82;6.57;;;8.50;99.90;;;;;;5033497;28;20455;-60
2022/05/30 02:32:11;;;;;;;14.30;6.57;;;8.50;99.90;;;;;;5034012;28;20446;-59
2022/05/30 02:37:21;;;;;;;13.80;6.07;;;8.40;99.90;;;;;;5031826;28;20079;-60
2022/05/30 02:39:46;;;;;;;12.98;5.90;;;8.40;99.90;;;;;;5029744;28;20041;-59
2022/05/30 02:42:12;;;;;;;10.23;6.10;;;8.30;99.90;;;;;;5033908;28;20103;-61
2022/05/30 02:44:38;;;;;;;14.23;5.72;;;8.30;99.90;;;;;;5033078;28;20021;-60
2022/05/30 02:47:05;;;;;;;10.23;5.22;;;8.20;99.90;;;;;;5033355;28;20036;-61
2022/05/30 02:49:31;;;;;;;11.52;5.63;;;8.20;99.90;;;;;;5033607;28;20061;-61
2022/05/30 02:51:57;;;;;;;11.18;5.43;;;8.20;99.90;;;;;;5031719;28;20505;-61
2022/05/30 02:54:24;;;;;;;7.72;5.10;;;8.10;99.90;;;;;;5031684;28;20021;-61
2022/05/30 02:56:55;;;;;;;13.13;5.90;;;8.10;99.90;;;;;;5031134;28;20483;-60
2022/05/30 02:59:21;;;;;;;11.73;6.00;;;8.00;99.90;;;;;;5030941;28;20037;-61
2022/05/30 03:01:47;;;;;;;14.18;6.65;;;8.00;99.90;;;;;;5032726;28;20061;-59
2022/05/30 03:04:13;;;;;;;16.48;7.15;;;8.00;99.90;;;;;;5030474;28;20033;-60
2022/05/30 03:06:39;;;;;;;17.33;7.10;;;8.00;99.90;;;;;;5029132;28;20041;-60
2022/05/30 03:09:05;;;;;;;15.38;6.43;;;7.90;99.90;;;;;;5031407;28;20041;-60
2022/05/30 03:11:32;;;;;;;12.52;6.85;;;7.90;99.90;;;;;;5031279;28;20037;-60
2022/05/30 03:13:58;;;;;;;21.30;6.38;;;7.90;99.90;;;;;;5030757;28;20021;-61
2022/05/30 03:16:24;;;;;;;17.55;6.50;;;7.90;99.90;;;;;;5030723;28;20064;-60
2022/05/30 03:18:50;;;;;;;12.27;6.68;;;7.90;99.90;;;;;;5030458;28;20129;-60
2022/05/30 03:21:15;;;;;;;10.20;5.68;;;7.90;99.90;;;;;;5027270;28;20100;-61
2022/05/30 03:23:41;;;;;;;12.38;6.38;;;7.80;99.90;;;;;;5030737;28;20036;-61
2022/05/30 03:26:08;;;;;;;17.35;6.45;;;7.80;99.90;;;;;;5031125;28;20036;-61
2022/05/30 03:28:34;;;;;;;13.48;5.95;;;7.90;99.90;;;;;;5032267;28;20104;-61
2022/05/30 03:31:01;;;;;;;10.25;6.28;;;7.90;99.90;;;;;;5031753;28;20037;-61
2022/05/30 03:33:28;;;;;;;15.75;5.85;;;7.90;99.90;;;;;;5038381;28;20022;-60
2022/05/30 03:35:53;;;;;;;21.40;6.25;;;8.00;99.90;;;;;;5030327;28;20029;-61
2022/05/30 03:38:20;;;;;;;15.68;6.70;;;8.00;99.90;;;;;;5021920;28;20108;-61
2022/05/30 03:40:45;;;;;;;11.35;5.65;;;8.00;99.90;;;;;;5029725;28;20029;-61
2022/05/30 03:43:12;;;;;;;10.75;5.35;;;8.10;99.90;;;;;;5030348;28;20116;-60
2022/05/30 03:45:42;;;;;;;12.80;5.90;;;8.10;99.90;;;;;;5031169;28;20033;-60
2022/05/30 03:48:10;;;;;;;16.45;5.25;;;8.20;99.90;;;;;;5030989;28;20025;-60
2022/05/30 03:50:38;;;;;;;10.52;6.07;;;8.30;99.90;;;;;;5027330;28;20052;-61
2022/05/30 03:53:05;;;;;;;12.32;5.93;;;8.40;99.90;;;;;;5024055;28;20026;-60
2022/05/30 03:55:34;;;;;;;15.80;6.40;;;8.40;99.90;;;;;;5030341;28;20028;-60
2022/05/30 03:58:01;;;;;;;14.15;8.43;;;8.40;99.90;;;;;;5031337;28;20459;-61
2022/05/30 04:00:26;;;;;;;21.65;8.02;;;8.50;99.90;;;;;;5030787;28;20502;-60
2022/05/30 04:02:52;;;;;;;19.42;7.35;;;8.60;99.90;;;;;;5032265;28;20083;-61
2022/05/30 04:05:19;;;;;;;13.18;7.07;;;8.60;99.90;;;;;;5030110;28;20025;-61
2022/05/30 04:07:45;;;;;;;16.73;7.20;;;8.60;99.90;;;;;;5029999;28;20537;-59
2022/05/30 04:10:11;;;;;;;11.98;7.05;;;8.60;99.90;;;;;;5030091;28;20049;-59
2022/05/30 04:12:37;;;;;;;13.30;8.05;;;8.60;99.90;;;;;;5030306;28;20036;-61
2022/05/30 04:15:05;;;;;;;13.57;7.40;;;8.70;99.90;;;;;;5030516;28;20383;-61
2022/05/30 04:17:33;;;;;;;14.27;7.45;;;8.70;99.90;;;;;;5030172;28;20064;-60
2022/05/30 04:19:59;;;;;;;13.95;7.15;;;8.80;99.90;;;;;;5030583;28;20029;-61
2022/05/30 04:22:24;;;;;;;9.88;6.65;;;8.80;99.90;;;;;;5028509;28;20034;-61
2022/05/30 04:24:51;;;;;;;15.68;7.28;;;8.90;99.90;;;;;;5029427;28;20032;-61
2022/05/30 04:27:17;;;;;;;10.88;6.15;;;9.00;99.90;;;;;;5030394;28;20095;-61
2022/05/30 04:29:43;;;;;;;10.93;5.97;;;9.00;99.90;;;;;;5028775;28;20211;-61
2022/05/30 04:32:09;;;;;;;16.73;5.28;;;9.10;99.90;;;;;;5031339;28;20454;-60
2022/05/30 04:34:36;;;;;;;15.95;4.70;;;9.10;99.90;;;;;;5026310;28;20018;-60
2022/05/30 04:37:03;;;;;;;11.45;4.53;;;9.10;99.90;;;;;;5031575;28;20022;-61
2022/05/30 04:39:29;;;;;;;14.25;4.82;;;9.30;99.90;;;;;;5030846;28;20414;-60
2022/05/30 04:41:55;;;;;;;11.93;4.32;;;9.30;99.90;;;;;;5031672;28;20038;-61
2022/05/30 04:44:20;;;;;;;8.25;4.35;;;9.40;99.90;;;;;;5030933;28;20517;-61
2022/05/30 04:46:56;;;;;;;15.23;4.32;;;9.30;99.90;;;;;;5028378;28;20112;-61
2022/05/30 04:49:23;;;;;;;10.15;4.20;;;9.30;99.90;;;;;;5029802;28;20053;-61
2022/05/30 04:51:50;;;;;;;10.02;4.13;;;9.40;99.90;;;;;;5029983;28;20052;-60
2022/05/30 04:54:18;;;;;;;10.02;4.45;;;9.40;99.90;;;;;;5029141;28;20046;-61
2022/05/30 04:56:44;;;;;;;12.13;5.72;;;9.50;99.90;;;;;;5027304;28;20034;-61
2022/05/30 04:59:10;;;;;;;11.77;5.40;;;9.50;99.90;;;;;;5029631;28;20506;-60
2022/05/30 05:01:37;;;;;;;16.55;5.65;;;9.50;99.90;;;;;;5027241;28;20021;-61
2022/05/30 05:04:05;;;;;;;13.30;5.72;;;9.60;99.90;;;;;;5023896;28;20033;-61
2022/05/30 05:06:30;;;;;;;10.43;5.28;;;9.80;99.90;;;;;;5027317;28;20021;-60
2022/05/30 05:09:12;;;;;;;11.43;5.63;;;9.90;99.90;;;;;;5028819;28;20479;-61
2022/05/30 05:11:38;;;;;;;10.57;4.80;;;10.00;99.90;;;;;;5028544;28;20032;-61
2022/05/30 05:14:03;;;;;;;12.98;5.72;;;10.00;99.90;;;;;;5029178;28;20021;-60
2022/05/30 05:16:30;;;;;;;10.05;4.88;;;10.10;99.90;;;;;;5029268;28;20112;-59
2022/05/30 05:18:57;;;;;;;9.27;5.30;;;10.20;99.90;;;;;;5029107;28;20563;-61
2022/05/30 05:21:26;;;;;;;12.23;4.38;;;10.20;99.90;;;;;;5029782;28;20029;-61
2022/05/30 05:23:52;;;;;;;10.00;5.68;;;10.30;99.90;;;;;;5029642;28;20060;-60
2022/05/30 05:26:18;;;;;;;13.25;4.53;;;10.30;99.90;;;;;;5027437;28;20069;-61
2022/05/30 05:28:45;;;;;;;7.72;3.88;;;10.40;99.90;;;;;;5028614;28;20040;-60
2022/05/30 05:31:16;;;;;;;18.63;4.20;;;10.40;99.90;;;;;;5027411;28;20029;-61
2022/05/30 05:33:42;;;;;;;14.23;4.97;;;10.50;99.90;;;;;;5029327;28;20145;-60
2022/05/30 05:36:07;;;;;;;9.02;4.45;;;10.50;99.90;;;;;;5028440;28;20583;-60
2022/05/30 05:38:33;;;;;;;8.45;5.45;;;10.60;99.90;;;;;;5030243;28;20028;-61
2022/05/30 05:40:58;;;;;;;14.45;5.50;;;10.60;99.90;;;;;;5030455;28;20032;-60
2022/05/30 05:43:24;;;;;;;11.85;5.13;;;10.70;99.90;;;;;;5027229;28;20396;-61
2022/05/30 05:45:49;;;;;;;6.82;4.72;;;10.90;99.90;;;;;;5028541;28;20098;-59
2022/05/30 05:48:15;;;;;;;9.45;5.15;;;10.80;99.90;;;;;;5025689;28;20032;-61
2022/05/30 05:50:43;;;;;;;9.00;5.65;;;10.80;99.90;;;;;;5029736;28;20044;-61
2022/05/30 05:53:09;;;;;;;10.45;5.93;;;10.80;99.90;;;;;;5029858;28;20055;-61
2022/05/30 05:55:36;;;;;;;21.75;6.45;;;10.90;99.90;;;;;;5028571;28;20028;-60
2022/05/30 05:58:02;;;;;;;8.93;4.65;;;11.00;99.90;;;;;;5029561;28;20045;-60
2022/05/30 06:00:27;;;;;;;16.05;5.25;;;11.10;99.90;;;;;;5029241;28;20075;-60
2022/05/30 06:02:54;;;;;;;14.07;6.68;;;11.00;99.90;;;;;;5029076;28;20380;-61
2022/05/30 06:05:19;;;;;;;9.75;6.28;;;11.30;99.90;;;;;;5025843;28;20112;-61
2022/05/30 06:07:45;;;;;;;8.27;5.75;;;11.40;99.90;;;;;;5028651;28;20120;-61
2022/05/30 06:10:13;;;;;;;11.98;5.82;;;11.20;99.90;;;;;;5003177;28;20045;-60
2022/05/30 06:12:45;;;;;;;12.82;5.78;;;11.30;99.90;;;;;;5028929;28;20032;-60
2022/05/30 06:15:14;;;;;;;13.23;5.97;;;11.30;99.90;;;;;;5024770;28;20049;-61
2022/05/30 06:17:43;;;;;;;10.88;5.55;;;11.40;99.90;;;;;;5026806;28;20036;-60
2022/05/30 06:20:11;;;;;;;9.68;4.25;;;11.40;99.90;;;;;;5028127;28;20034;-60
2022/05/30 06:22:37;;;;;;;7.82;4.28;;;11.60;99.90;;;;;;5027739;28;20434;-61
2022/05/30 06:25:03;;;;;;;12.65;4.68;;;11.50;99.90;;;;;;5027157;28;20055;-60
2022/05/30 06:27:29;;;;;;;9.50;5.10;;;11.60;99.90;;;;;;5027679;28;20021;-61
2022/05/30 06:29:55;;;;;;;9.73;4.90;;;11.70;99.90;;;;;;5026526;28;20513;-61
2022/05/30 06:32:21;;;;;;;10.40;4.85;;;11.70;99.90;;;;;;5029105;28;20033;-61
2022/05/30 06:34:46;;;;;;;13.35;5.57;;;11.90;99.90;;;;;;5028628;28;20025;-60
2022/05/30 06:37:12;;;;;;;13.50;4.97;;;12.10;99.90;;;;;;5027719;28;20025;-59
2022/05/30 06:39:38;;;;;;;11.48;4.57;;;12.00;99.90;;;;;;5026177;28;20025;-62
2022/05/30 06:42:13;;;;;;;8.82;4.38;;;12.20;99.90;;;;;;5023351;28;20040;-61
2022/05/30 06:44:40;;;;;;;15.23;4.72;;;12.40;99.90;;;;;;5022371;28;20099;-61
2022/05/30 06:47:10;;;;;;;9.98;4.72;;;12.50;99.90;;;;;;5027939;28;20034;-61
2022/05/30 06:49:35;;;;;;;9.73;4.90;;;12.60;99.90;;;;;;5020696;28;20021;-62
2022/05/30 06:52:01;;;;;;;11.38;4.30;;;13.00;99.90;;;;;;5024839;28;20403;-61
2022/05/30 06:54:26;;;;;;;9.27;4.07;;;13.20;99.90;;;;;;5028713;28;20053;-61
2022/05/30 06:59:36;;;;;;;10.90;4.18;;;13.50;99.90;;;;;;5023927;28;20472;-60
2022/05/30 07:02:04;;;;;;;8.10;4.10;;;13.30;99.90;;;;;;5031580;28;20112;-61
2022/05/30 07:04:31;;;;;;;11.95;4.57;;;13.30;99.90;;;;;;5031294;28;20441;-61
2022/05/30 07:06:57;;;;;;;11.13;4.72;;;13.30;99.90;;;;;;5031502;28;20026;-61
2022/05/30 07:09:22;;;;;;;9.45;4.28;;;13.40;99.90;;;;;;5000491;28;20099;-61
2022/05/30 07:11:49;;;;;;;9.07;4.85;;;13.50;99.90;;;;;;5024128;28;20552;-61
2022/05/30 07:14:16;;;;;;;10.70;4.55;;;13.70;99.90;;;;;;5028639;28;20037;-61
2022/05/30 07:16:42;;;;;;;8.07;3.85;;;13.50;99.90;;;;;;5031870;28;20074;-61
2022/05/30 07:19:09;;;;;;;7.68;4.75;;;13.60;99.90;;;;;;5029762;28;20473;-61
2022/05/30 07:21:36;;;;;;;17.27;5.60;;;13.70;99.90;;;;;;5014509;28;20025;-62
2022/05/30 07:24:02;;;;;;;9.73;4.32;;;13.40;99.90;;;;;;5027820;28;20052;-60
2022/05/30 07:26:29;;;;;;;9.80;4.63;;;13.40;99.90;;;;;;5030261;28;20100;-61
2022/05/30 07:28:55;;;;;;;9.93;3.85;;;13.80;99.90;;;;;;5030830;28;20471;-62
2022/05/30 07:31:22;;;;;;;14.25;4.00;;;13.70;99.90;;;;;;5030828;28;20049;-60
2022/05/30 07:33:48;;;;;;;7.80;3.70;;;13.60;99.90;;;;;;5030462;28;20029;-61
2022/05/30 07:36:18;;;;;;;7.38;3.53;;;13.50;99.90;;;;;;5030709;28;20080;-61
2022/05/30 07:38:44;;;;;;;7.75;3.55;;;13.60;99.90;;;;;;5030615;28;20454;-62
2022/05/30 07:41:10;;;;;;;7.30;3.67;;;13.60;99.90;;;;;;5031574;28;20065;-62
2022/05/30 07:43:36;;;;;;;9.43;4.10;;;13.90;99.90;;;;;;5027577;28;20036;-61
2022/05/30 07:46:07;;;;;;;7.95;3.53;;;13.80;99.90;;;;;;5029967;28;20033;-61
2022/05/30 07:48:34;;;;;;;13.70;3.38;;;13.80;99.90;;;;;;5030354;28;20041;-61
2022/05/30 07:51:00;;;;;;;9.55;3.85;;;13.60;99.90;;;;;;5030261;28;20045;-61
2022/05/30 07:53:26;;;;;;;10.02;3.15;;;13.50;99.90;;;;;;5010158;28;20026;-61
2022/05/30 07:55:52;;;;;;;8.25;3.03;;;13.50;99.90;;;;;;5030627;28;20044;-57
2022/05/30 07:58:18;;;;;;;10.95;3.97;;;13.60;99.90;;;;;;5030236;28;20033;-61
2022/05/30 08:00:43;;;;;;;11.82;4.43;;;13.50;99.90;;;;;;5030676;28;20053;-61
2022/05/30 08:03:14;;;;;;;13.88;4.45;;;13.70;99.90;;;;;;5028986;28;20072;-58
2022/05/30 08:05:41;;;;;;;10.85;3.83;;;14.00;99.90;;;;;;5028519;28;20040;-61
2022/05/30 08:08:07;;;;;;;8.68;3.50;;;14.00;99.90;;;;;;5030245;28;20025;-61
2022/05/30 08:10:32;;;;;;;15.38;3.90;;;14.00;99.90;;;;;;5029934;28;20025;-61
2022/05/30 08:12:58;;;;;;;14.07;3.50;;;13.70;99.90;;;;;;5030345;28;20034;-61
2022/05/30 08:15:24;;;;;;;10.55;4.95;;;13.60;99.90;;;;;;5029673;28;20032;-61
2022/05/30 08:17:57;;;;;;;12.45;4.03;;;13.40;99.90;;;;;;5030456;28;20039;-58
2022/05/30 08:20:26;;;;;;;10.83;3.27;;;13.40;99.90;;;;;;5020049;28;20033;-60
2022/05/30 08:22:51;;;;;;;12.10;3.92;;;13.50;99.90;;;;;;5030570;28;20391;-60
2022/05/30 08:25:19;;;;;;;10.15;3.50;;;13.40;99.90;;;;;;5029956;28;20124;-62
2022/05/30 08:27:47;;;;;;;10.68;3.47;;;13.30;99.90;;;;;;5029935;28;20037;-60
2022/05/30 08:30:16;;;;;;;15.25;3.50;;;13.20;99.90;;;;;;5021664;28;20116;-61
2022/05/30 08:32:43;;;;;;;9.60;3.78;;;13.20;99.90;;;;;;5029371;28;20060;-61
2022/05/30 08:35:13;;;;;;;12.77;3.40;;;13.10;99.90;;;;;;5028072;28;20410;-61
2022/05/30 08:37:40;;;;;;;12.00;3.33;;;12.90;99.90;;;;;;5028954;28;20057;-61
2022/05/30 08:43:30;;;;;;;;;;;12.90;99.90;;;;;;5025543;28;20044;-61
2022/05/30 08:46:24;;;;;;;8.93;3.47;;;13.00;99.90;;;;;;5026924;28;20375;-60
2022/05/30 08:49:13;;;;;;;8.95;3.67;;;13.00;99.90;;;;;;5029113;28;20447;-59
2022/05/30 08:52:01;;;;;;;11.07;3.53;;;12.80;99.90;;;;;;5029341;28;20022;-60
2022/05/30 08:54:32;;;;;;;5.95;2.92;;;12.90;99.90;;;;;;5026964;28;20065;-60
2022/05/30 08:56:59;;;;;;;10.90;3.92;;;13.10;99.90;;;;;;5029655;28;20032;-60
2022/05/30 08:59:42;;;;;;;10.75;3.85;;;13.20;99.90;;;;;;5028021;28;20033;-61
2022/05/30 09:02:14;;;;;;;15.05;3.75;;;13.30;99.90;;;;;;5030931;28;20022;-61
2022/05/30 09:04:47;;;;;;;12.32;3.78;;;13.50;99.90;;;;;;5027560;28;20029;-61
2022/05/30 09:07:21;;;;;;;12.05;3.72;;;13.70;99.90;;;;;;5029324;28;20029;-60
2022/05/30 09:10:03;;;;;;;8.75;3.08;;;13.80;99.90;;;;;;5028222;28;20493;-61
2022/05/30 09:13:06;;;;;;;13.07;3.58;;;14.10;99.90;;;;;;5026765;28;20494;-60
2022/05/30 09:15:40;;;;;;;10.85;2.90;;;14.10;99.90;;;;;;5013851;28;20108;-61
2022/05/30 09:18:08;;;;;;;12.68;3.78;;;14.20;99.90;;;;;;5029833;28;20030;-61
2022/05/30 09:20:35;;;;;;;11.38;3.55;;;14.30;99.90;;;;;;5028347;28;20642;-61
2022/05/30 09:23:02;;;;;;;9.73;3.53;;;14.50;99.90;;;;;;5030454;28;20022;-61
2022/05/30 09:28:20;;;;;;;10.85;3.63;;;15.00;99.90;;;;;;5027816;28;20395;-61
2022/05/30 09:31:22;;;;;;;10.55;3.55;;;15.20;99.90;;;;;;5011721;28;20041;-61
2022/05/30 09:33:54;;;;;;;7.35;3.63;;;15.30;99.90;;;;;;5029118;28;20036;-62
2022/05/30 09:36:28;;;;;;;10.20;3.65;;;15.50;99.60;;;;;;5028915;28;20026;-61
2022/05/30 09:39:06;;;;;;;6.60;3.28;;;15.80;99.90;;;;;;5029454;28;20036;-61
2022/05/30 09:41:37;;;;;;;9.55;2.72;;;16.00;99.00;;;;;;5028828;28;20053;-62
2022/05/30 09:44:17;;;;;;;6.78;3.03;;;15.70;98.90;;;;;;5027800;28;20041;-60
2022/05/30 09:47:03;;;;;;;11.40;3.10;;;15.60;99.20;;;;;;5029493;28;20033;-61
2022/05/30 09:49:39;;;;;;;12.55;3.65;;;15.60;97.00;;;;;;5027810;28;20498;-62
2022/05/30 09:52:25;;;;;;;7.65;2.63;;;15.80;97.50;;;;;;5029574;28;20178;-61
2022/05/30 09:54:52;;;;;;;8.88;3.10;;;16.00;94.20;;;;;;5025759;28;20022;-61
2022/05/30 09:57:23;;;;;;;5.82;2.40;;;17.00;94.20;;;;;;5020812;28;20018;-61
2022/05/30 09:59:52;;;;;;;10.38;3.67;;;17.90;90.70;;;;;;5025848;28;20033;-62
2022/05/30 10:02:25;;;;;;;6.38;3.22;;;18.00;90.70;;;;;;5026030;28;20032;-61
2022/05/30 10:05:19;;;;;;;5.25;2.58;;;18.10;89.50;;;;;;5024869;28;20405;-62
2022/05/30 10:07:57;;;;;;;8.65;2.90;;;18.10;78.80;;;;;;5012043;28;20045;-60
2022/05/30 10:10:25;;;;;;;11.95;2.60;;;18.40;84.40;;;;;;5022481;28;20026;-61
2022/05/30 10:13:03;;;;;;;16.27;2.78;;;18.20;86.10;;;;;;5025929;28;20032;-62
2022/05/30 10:15:34;;;;;;;12.23;2.63;;;18.40;82.50;;;;;;5028613;28;20025;-61
2022/05/30 10:18:18;;;;;;;8.70;2.40;;;18.50;85.70;;;;;;5008851;28;20080;-62
2022/05/30 10:21:04;;;;;;;6.82;2.00;;;18.80;87.00;;;;;;5024766;28;20033;-61
2022/05/30 10:29:27;;;;;;;6.55;2.50;;;19.10;78.70;;;;;;5009092;28;20040;-61
2022/05/30 10:32:24;;;;;;;4.50;1.55;;;18.60;79.50;;;;;;5030969;28;20383;-61
2022/05/30 10:35:13;;;;;;;5.80;1.88;;;18.50;79.70;;;;;;5031827;28;20029;-62
2022/05/30 10:37:58;;;;;;;5.68;1.80;;;18.10;74.20;;;;;;5026639;28;20029;-61
2022/05/30 10:40:32;;;;;;;11.63;3.40;;;18.50;76.40;;;;;;5025179;28;20383;-61
2022/05/30 10:43:10;;;;;;;5.75;1.95;;;18.60;77.40;;;;;;5033103;28;20068;-58
2022/05/30 10:45:57;;;;;;;5.95;2.08;;;18.20;78.10;;;;;;5022940;28;20116;-61
2022/05/30 10:48:31;;;;;;;6.55;2.08;;;17.90;78.60;;;;;;5028773;28;20060;-62
2022/05/30 10:51:12;;;;;;;5.55;2.25;;;17.50;79.20;;;;;;5030759;28;20510;-61
2022/05/30 10:54:09;;;;;;;6.32;2.22;;;17.60;78.20;;;;;;5014107;28;20025;-61
2022/05/30 10:56:39;;;;;;;9.90;2.53;;;17.70;77.00;;;;;;5031002;28;20104;-60
2022/05/30 10:59:26;;;;;;;9.23;2.63;;;17.30;79.70;;;;;;5030954;28;20033;-60
2022/05/30 11:01:57;;;;;;;7.82;2.47;;;17.20;82.00;;;;;;5032237;28;20483;-57
2022/05/30 11:04:36;;;;;;;8.57;3.10;;;17.40;83.10;;;;;;5030406;28;20418;-62
2022/05/30 11:07:21;;;;;;;5.22;2.13;;;17.50;76.60;;;;;;5032250;28;20037;-62
2022/05/30 11:09:57;;;;;;;8.13;2.45;;;17.20;81.20;;;;;;5025876;28;20030;-62
2022/05/30 11:12:30;;;;;;;11.05;3.00;;;17.50;81.10;;;;;;5032810;28;20104;-62
2022/05/30 11:15:14;;;;;;;6.43;2.33;;;18.20;81.40;;;;;;5030717;28;20036;-62
2022/05/30 11:17:54;;;;;;;6.82;2.78;;;18.30;82.30;;;;;;5028451;28;20116;-62
2022/05/30 11:20:34;;;;;;;6.60;2.63;;;18.10;82.50;;;;;;5031254;28;20048;-61
2022/05/30 11:23:00;;;;;;;6.93;2.30;;;17.50;81.40;;;;;;5026755;28;20029;-59
2022/05/30 11:25:41;;;;;;;6.63;2.55;;;17.50;81.80;;;;;;5030084;28;20091;-61
2022/05/30 11:28:24;;;;;;;7.57;2.75;;;16.80;78.00;;;;;;5026745;28;20100;-62
2022/05/30 11:30:59;;;;;;;10.35;2.70;;;16.50;81.60;;;;;;5006162;28;20049;-63
2022/05/30 11:33:28;;;;;;;8.82;2.75;;;16.10;88.00;;;;;;5030925;28;20021;-58
2022/05/30 11:36:32;;;;;;;12.13;3.20;;;15.90;87.30;;;;;;5029902;28;20029;-58
2022/05/30 11:39:22;;;;;;;9.13;3.45;;;15.70;88.00;;;;;;5027561;28;20108;-62
2022/05/30 11:42:20;;;;;;;10.07;3.97;;;15.40;90.10;;;;;;5030251;28;20048;-61
2022/05/30 11:44:53;;;;;;;9.32;3.25;;;15.30;91.90;;;;;;5021790;28;20037;-61
2022/05/30 11:47:43;;;;;;;6.50;2.85;;;15.30;91.60;;;;;;5028266;28;20036;-60
2022/05/30 11:50:33;;;;;;;6.18;2.55;;;15.20;91.70;;;;;;5023510;28;20045;-62
2022/05/30 11:53:22;;;;;;;10.77;3.33;;;15.20;92.00;;;;;;5029931;28;20025;-61
2022/05/30 11:56:20;;;;;;;9.40;3.60;;;15.30;92.30;;;;;;5029153;28;20036;-60
2022/05/30 11:59:11;;;;;;;11.98;4.45;;;15.50;91.20;;;;;;5028564;28;20491;-61
2022/05/30 12:01:41;;;;;;;6.35;3.45;;;15.70;90.90;;;;;;5025147;28;20394;-61
2022/05/30 12:04:44;;;;;;;17.25;3.67;;;16.00;89.60;;;;;;5029210;28;20038;-60
2022/05/30 12:07:37;;;;;;;8.20;3.35;;;16.20;89.80;;;;;;5027290;28;20045;-62
2022/05/30 12:10:27;;;;;;;12.45;3.50;;;16.10;89.20;;;;;;5017898;28;20511;-61
2022/05/30 12:13:17;;;;;;;10.82;3.95;;;16.00;90.20;;;;;;5018989;28;20798;-62
2022/05/30 12:16:31;;;;;;;7.43;3.00;;;16.60;88.00;;;;;;5024705;28;20130;-61
2022/05/30 12:24:59;;;;;;;8.10;2.58;;;17.10;86.60;;;;;;5019534;28;20121;-61
2022/05/30 12:27:31;;;;;;;14.07;3.38;;;17.50;84.60;;;;;;5028226;28;20112;-61
2022/05/30 12:29:57;;;;;;;7.38;3.53;;;18.10;83.50;;;;;;5029137;28;20637;-61
2022/05/30 12:32:36;;;;;;;6.32;1.80;;;18.30;80.70;;;;;;5025397;28;20392;-61
2022/05/30 12:35:05;;;;;;;9.70;2.47;;;18.70;77.30;;;;;;5026922;28;20502;-60
2022/05/30 12:38:04;;;;;;;5.53;2.30;;;18.50;71.30;;;;;;5030336;28;20040;-62
2022/05/30 12:40:32;;;;;;;10.40;2.30;;;18.90;72.20;;;;;;5019307;28;20473;-61
2022/05/30 12:43:23;;;;;;;4.10;2.17;;;18.80;73.60;;;;;;5030910;28;20052;-61
2022/05/30 12:45:54;;;;;;;6.70;2.63;;;18.70;71.70;;;;;;5028123;28;20072;-62
2022/05/30 12:48:31;;;;;;;6.47;2.33;;;19.00;74.00;;;;;;5028587;28;20033;-62
2022/05/30 12:51:11;;;;;;;8.25;2.67;;;18.60;70.90;;;;;;5026139;28;20032;-61
2022/05/30 12:54:03;;;;;;;7.22;2.55;;;18.20;75.10;;;;;;5030235;28;20518;-62
2022/05/30 12:56:37;;;;;;;10.23;2.80;;;18.50;74.10;;;;;;5019326;28;20605;-62
2022/05/30 12:59:03;;;;;;;9.00;2.53;;;18.40;72.70;;;;;;5029777;28;20026;-60
2022/05/30 13:01:49;;;;;;;5.07;2.22;;;18.70;71.10;;;;;;5028271;28;20026;-62
2022/05/30 13:04:27;;;;;;;10.23;3.63;;;18.50;73.90;;;;;;5025456;28;20025;-62
2022/05/30 13:07:16;;;;;;;4.88;2.42;;;18.60;72.50;;;;;;5025179;28;20108;-62
2022/05/30 13:09:47;;;;;;;9.18;2.63;;;18.40;74.40;;;;;;5027828;28;20096;-62
2022/05/30 13:12:17;;;;;;;9.70;2.70;;;17.90;74.60;;;;;;5030101;28;20033;-62
2022/05/30 13:15:00;;;;;;;6.25;3.15;;;17.80;75.90;;;;;;5028833;28;20026;-61
2022/05/30 13:17:43;;;;;;;7.20;3.05;;;17.90;75.50;;;;;;5028882;28;20026;-61
2022/05/30 13:20:15;;;;;;;7.85;3.10;;;17.60;75.90;;;;;;5022815;28;20428;-62
2022/05/30 13:22:48;;;;;;;8.77;3.22;;;17.60;76.50;;;;;;5022020;28;20254;-61
2022/05/30 13:25:19;;;;;;;8.73;3.20;;;17.70;75.70;;;;;;5024736;28;20026;-62
2022/05/30 13:27:46;;;;;;;5.88;3.17;;;17.70;77.80;;;;;;5026872;28;20037;-62
2022/05/30 13:30:25;;;;;;;8.30;3.13;;;17.70;75.50;;;;;;5028890;28;20018;-62